Time;durP1;ratioP1;P1;durP2;ratioP2;P2;SDS_P1;SDS_P2;PMS_P1;PMS_P2;Temp;Humidity;BMP_temperature;BMP_pressure;BME280_temperature;BME280_humidity;BME280_pressure;Samples;Min_cycle;Max_cycle;Signal;HPM_P1;HPM_P2
2023/07/22 00:02:23;;;;;;;13.57;6.63;;;12.90;99.90;;;;;;5112863;27;20485;-79
2023/07/22 00:04:50;;;;;;;12.80;6.80;;;12.90;99.90;;;;;;5082966;27;20046;-79
2023/07/22 00:07:16;;;;;;;15.30;6.60;;;13.00;99.90;;;;;;5083939;27;20245;-79
2023/07/22 00:09:43;;;;;;;10.27;5.97;;;12.90;99.90;;;;;;5117729;27;20034;-79
2023/07/22 00:12:09;;;;;;;12.55;6.20;;;12.90;99.90;;;;;;5110759;27;20590;-80
2023/07/22 00:14:40;;;;;;;10.43;5.82;;;12.90;99.90;;;;;;5108085;27;20031;-79
2023/07/22 00:17:08;;;;;;;12.63;5.97;;;12.80;99.90;;;;;;5105202;27;20142;-79
2023/07/22 00:19:34;;;;;;;10.50;5.63;;;12.70;99.90;;;;;;5097983;27;20039;-79
2023/07/22 00:22:00;;;;;;;11.60;6.30;;;12.60;99.90;;;;;;5114598;27;20108;-79
2023/07/22 00:24:25;;;;;;;12.10;5.60;;;12.60;99.90;;;;;;5092450;27;20054;-79
2023/07/22 00:26:51;;;;;;;11.18;5.57;;;12.60;99.90;;;;;;5106570;27;20069;-79
2023/07/22 00:29:17;;;;;;;11.23;5.50;;;12.50;99.90;;;;;;5090364;27;20071;-79
2023/07/22 00:31:43;;;;;;;10.95;5.75;;;12.50;99.90;;;;;;5089964;27;20493;-79
2023/07/22 00:34:09;;;;;;;14.02;6.03;;;12.40;99.90;;;;;;5097506;27;20113;-79
2023/07/22 00:36:35;;;;;;;12.35;5.80;;;12.40;99.90;;;;;;5089220;27;20468;-79
2023/07/22 00:39:01;;;;;;;12.20;6.03;;;12.40;99.90;;;;;;5116034;27;20031;-79
2023/07/22 00:41:27;;;;;;;11.10;5.30;;;12.30;99.90;;;;;;5102441;27;20369;-79
2023/07/22 00:43:52;;;;;;;14.65;6.43;;;12.30;99.90;;;;;;5103902;27;20068;-79
2023/07/22 00:46:18;;;;;;;12.25;6.07;;;12.20;99.90;;;;;;5090482;27;20046;-79
2023/07/22 00:48:45;;;;;;;11.25;5.00;;;12.30;99.90;;;;;;5108453;27;20403;-79
2023/07/22 00:51:10;;;;;;;14.23;5.60;;;12.20;99.90;;;;;;5120853;27;20047;-79
2023/07/22 00:53:36;;;;;;;11.30;5.60;;;12.20;99.90;;;;;;5095150;27;20503;-79
2023/07/22 00:56:02;;;;;;;9.15;5.32;;;12.20;99.90;;;;;;5115694;27;20054;-79
2023/07/22 00:58:27;;;;;;;11.15;5.22;;;12.20;99.90;;;;;;5089736;27;20049;-79
2023/07/22 01:00:53;;;;;;;9.27;5.40;;;12.10;99.90;;;;;;5107780;27;20035;-79
2023/07/22 01:03:19;;;;;;;10.52;5.40;;;12.10;99.90;;;;;;5087423;27;20512;-79
2023/07/22 01:05:47;;;;;;;10.48;5.47;;;12.10;99.90;;;;;;5085699;27;20045;-79
2023/07/22 01:08:13;;;;;;;12.48;5.55;;;12.00;99.90;;;;;;5121641;27;20046;-79
2023/07/22 01:10:39;;;;;;;11.20;5.40;;;12.00;99.90;;;;;;5123623;27;20530;-79
2023/07/22 01:13:05;;;;;;;10.32;5.40;;;12.00;99.90;;;;;;5100431;27;20325;-79
2023/07/22 01:15:32;;;;;;;10.70;5.40;;;12.00;99.90;;;;;;5083012;27;20042;-79
2023/07/22 01:18:01;;;;;;;12.15;5.70;;;12.00;99.90;;;;;;5104105;27;20434;-79
2023/07/22 01:20:28;;;;;;;13.88;6.00;;;12.00;99.90;;;;;;5093219;27;20043;-79
2023/07/22 01:22:54;;;;;;;11.93;6.15;;;12.00;99.90;;;;;;5124372;27;20553;-79
2023/07/22 01:25:21;;;;;;;11.88;6.43;;;12.00;99.90;;;;;;5104632;27;20438;-79
2023/07/22 01:27:48;;;;;;;13.02;6.38;;;11.90;99.90;;;;;;5120214;27;20043;-79
2023/07/22 01:30:14;;;;;;;12.77;6.55;;;12.00;99.90;;;;;;5090184;27;20033;-79
2023/07/22 01:32:40;;;;;;;12.00;6.97;;;12.00;99.90;;;;;;5103992;27;20035;-79
2023/07/22 01:35:10;;;;;;;12.60;6.47;;;12.00;99.90;;;;;;5092952;27;20122;-79
2023/07/22 01:37:36;;;;;;;13.02;6.78;;;12.00;99.90;;;;;;5095900;27;20442;-79
2023/07/22 01:40:23;;;;;;;12.35;6.13;;;11.90;99.90;;;;;;5109137;27;20090;-79
2023/07/22 01:42:48;;;;;;;11.55;6.15;;;11.90;99.90;;;;;;5099641;27;20059;-79
2023/07/22 01:45:13;;;;;;;12.15;5.97;;;11.80;99.90;;;;;;5105685;27;20039;-79
2023/07/22 01:47:42;;;;;;;10.43;6.18;;;11.70;99.90;;;;;;5120085;27;20033;-79
2023/07/22 01:50:08;;;;;;;11.50;5.32;;;11.70;99.90;;;;;;5099482;27;20039;-79
2023/07/22 01:52:35;;;;;;;14.30;6.55;;;11.60;99.90;;;;;;5085955;27;20055;-79
2023/07/22 01:55:01;;;;;;;13.68;5.95;;;11.60;99.90;;;;;;5093016;27;20177;-79
2023/07/22 01:57:26;;;;;;;10.82;5.95;;;11.50;99.90;;;;;;5097984;27;20189;-79
2023/07/22 01:59:52;;;;;;;12.52;6.45;;;11.60;99.90;;;;;;5116807;27;20038;-79
2023/07/22 02:02:18;;;;;;;14.30;6.57;;;11.60;99.90;;;;;;5099883;27;20035;-79
2023/07/22 02:04:44;;;;;;;13.52;5.88;;;11.50;99.90;;;;;;5106052;27;20442;-79
2023/07/22 02:07:09;;;;;;;9.57;5.68;;;11.50;99.90;;;;;;5109195;27;20039;-79
2023/07/22 02:09:35;;;;;;;12.15;5.72;;;11.50;99.90;;;;;;5087193;27;20104;-79
2023/07/22 02:12:01;;;;;;;13.00;5.90;;;11.40;99.90;;;;;;5103535;27;20042;-79
2023/07/22 02:14:27;;;;;;;10.10;5.57;;;11.40;99.90;;;;;;5086874;27;20113;-79
2023/07/22 02:16:52;;;;;;;14.40;6.10;;;11.30;99.90;;;;;;5114061;27;20754;-79
2023/07/22 02:19:18;;;;;;;15.70;6.03;;;11.40;99.90;;;;;;5101377;27;20459;-79
2023/07/22 02:21:44;;;;;;;11.48;6.78;;;11.50;99.90;;;;;;5089309;27;20035;-79
2023/07/22 02:24:10;;;;;;;10.32;5.63;;;11.40;99.90;;;;;;5102141;27;20086;-79
2023/07/22 02:26:36;;;;;;;11.27;5.88;;;11.40;99.90;;;;;;5130394;27;20039;-79
2023/07/22 02:29:02;;;;;;;12.27;5.93;;;11.30;99.90;;;;;;5114520;27;20365;-79
2023/07/22 02:31:28;;;;;;;12.82;5.95;;;11.30;99.90;;;;;;5098486;27;20108;-79
2023/07/22 02:33:53;;;;;;;11.90;6.50;;;11.30;99.90;;;;;;5088313;27;20060;-79
2023/07/22 02:36:19;;;;;;;12.30;6.30;;;11.30;99.90;;;;;;5103863;27;20027;-79
2023/07/22 02:38:45;;;;;;;12.73;6.03;;;11.30;99.90;;;;;;5104590;27;20037;-79
2023/07/22 02:41:11;;;;;;;11.40;6.72;;;11.30;99.90;;;;;;5103300;27;20038;-79
2023/07/22 02:43:36;;;;;;;13.60;6.10;;;11.30;99.90;;;;;;5083298;27;20051;-79
2023/07/22 02:46:09;;;;;;;10.98;5.90;;;11.30;99.90;;;;;;5111619;27;20035;-79
2023/07/22 02:48:36;;;;;;;14.98;7.28;;;11.30;99.90;;;;;;5109001;27;20034;-79
2023/07/22 02:51:09;;;;;;;12.07;6.25;;;11.40;99.90;;;;;;5104535;27;20350;-79
2023/07/22 02:53:40;;;;;;;16.58;8.63;;;11.30;99.90;;;;;;5118746;27;20493;-79
2023/07/22 02:56:07;;;;;;;15.20;7.30;;;11.30;99.90;;;;;;5105654;27;20039;-79
2023/07/22 02:58:34;;;;;;;11.20;6.25;;;11.30;99.90;;;;;;5099242;27;20412;-80
2023/07/22 03:00:59;;;;;;;14.77;6.80;;;11.20;99.90;;;;;;5104244;27;20455;-79
2023/07/22 03:03:25;;;;;;;12.55;6.65;;;11.10;99.90;;;;;;5101353;27;20043;-80
2023/07/22 03:05:52;;;;;;;11.93;6.85;;;11.10;99.90;;;;;;5115025;27;20042;-79
2023/07/22 03:08:18;;;;;;;12.30;7.20;;;11.20;99.90;;;;;;5113098;27;20076;-79
2023/07/22 03:10:48;;;;;;;12.95;6.22;;;11.10;99.90;;;;;;5110640;27;20457;-79
2023/07/22 03:13:15;;;;;;;11.93;6.80;;;11.10;99.90;;;;;;5093012;27;20451;-79
2023/07/22 03:15:40;;;;;;;13.30;6.38;;;11.00;99.90;;;;;;5094844;27;20031;-79
2023/07/22 03:18:06;;;;;;;16.08;7.55;;;11.10;99.90;;;;;;5089119;27;20035;-79
2023/07/22 03:20:32;;;;;;;14.52;6.53;;;11.10;99.90;;;;;;5098830;27;20262;-79
2023/07/22 03:22:58;;;;;;;11.90;6.65;;;11.10;99.90;;;;;;5097767;27;20134;-79
2023/07/22 03:25:26;;;;;;;12.38;6.07;;;11.10;99.90;;;;;;5109216;27;20039;-79
2023/07/22 03:27:52;;;;;;;14.57;6.00;;;11.10;99.90;;;;;;5108011;27;20122;-79
2023/07/22 03:30:18;;;;;;;13.73;5.78;;;11.10;99.90;;;;;;5089979;27;20061;-79
2023/07/22 03:32:47;;;;;;;11.40;5.88;;;11.10;99.90;;;;;;5121545;27;20043;-79
2023/07/22 03:35:13;;;;;;;13.82;6.28;;;11.10;99.90;;;;;;5125583;27;20045;-79
2023/07/22 03:37:39;;;;;;;12.82;6.45;;;11.10;99.90;;;;;;5107983;27;20031;-79
2023/07/22 03:40:07;;;;;;;13.77;6.75;;;11.20;99.90;;;;;;5121436;27;20374;-79
2023/07/22 03:42:34;;;;;;;13.45;5.82;;;11.20;99.90;;;;;;5104119;27;20059;-79
2023/07/22 03:45:00;;;;;;;11.80;6.43;;;11.20;99.90;;;;;;5114492;27;20046;-79
2023/07/22 03:47:26;;;;;;;10.95;5.93;;;11.30;99.90;;;;;;5109383;27;20043;-79
2023/07/22 03:49:52;;;;;;;16.77;6.40;;;11.30;99.90;;;;;;5109005;27;20461;-79
2023/07/22 03:52:18;;;;;;;12.02;5.90;;;11.40;99.90;;;;;;5102923;27;20084;-79
2023/07/22 03:54:44;;;;;;;11.75;6.20;;;11.50;99.90;;;;;;5087847;27;20039;-79
2023/07/22 03:57:10;;;;;;;12.13;5.50;;;11.60;99.90;;;;;;5110042;27;20481;-79
2023/07/22 03:59:36;;;;;;;12.38;5.55;;;11.60;99.90;;;;;;5116510;27;20045;-80
2023/07/22 04:02:02;;;;;;;12.82;5.68;;;11.70;99.90;;;;;;5107822;27;20415;-79
2023/07/22 04:04:28;;;;;;;11.10;5.90;;;11.80;99.90;;;;;;5117940;27;20035;-80
2023/07/22 04:06:54;;;;;;;11.73;5.80;;;11.90;99.90;;;;;;5099265;27;20039;-79
2023/07/22 04:09:19;;;;;;;13.18;6.13;;;12.00;99.90;;;;;;5103263;27;20038;-79
2023/07/22 04:11:45;;;;;;;10.27;5.75;;;12.10;99.90;;;;;;5089088;27;20042;-79
2023/07/22 04:14:13;;;;;;;9.43;5.18;;;12.10;99.90;;;;;;5092857;27;20035;-79
2023/07/22 04:16:39;;;;;;;9.63;5.13;;;12.20;99.90;;;;;;5124832;27;20031;-80
2023/07/22 04:19:06;;;;;;;10.68;5.80;;;12.30;99.90;;;;;;5091185;27;20347;-79
2023/07/22 04:21:31;;;;;;;10.98;5.10;;;12.30;99.90;;;;;;5087842;27;20043;-80
2023/07/22 04:23:57;;;;;;;12.85;5.20;;;12.40;99.90;;;;;;5083896;27;20043;-80
2023/07/22 04:26:22;;;;;;;9.10;5.88;;;12.40;99.90;;;;;;5095617;27;20046;-80
2023/07/22 04:28:48;;;;;;;11.10;5.40;;;12.50;99.90;;;;;;5097568;27;20460;-79
2023/07/22 04:31:14;;;;;;;12.68;5.82;;;12.60;99.90;;;;;;5100840;27;20054;-80
2023/07/22 04:33:41;;;;;;;9.75;5.22;;;12.50;99.90;;;;;;5099835;27;20113;-80
2023/07/22 04:36:07;;;;;;;12.27;5.72;;;12.60;99.90;;;;;;5083728;27;20558;-80
2023/07/22 04:38:33;;;;;;;12.32;6.13;;;12.60;99.90;;;;;;5085915;27;20130;-79
2023/07/22 04:41:01;;;;;;;13.18;5.55;;;12.60;99.90;;;;;;5084845;27;20558;-80
2023/07/22 04:43:27;;;;;;;12.40;5.97;;;12.70;99.90;;;;;;5088770;28;20148;-80
2023/07/22 04:45:52;;;;;;;11.07;6.05;;;12.70;99.90;;;;;;5084435;27;20503;-80
2023/07/22 04:48:22;;;;;;;11.20;5.95;;;12.70;99.90;;;;;;5108821;27;20071;-79
2023/07/22 04:50:47;;;;;;;11.38;6.32;;;12.80;99.90;;;;;;5109809;27;20040;-80
2023/07/22 04:53:13;;;;;;;9.70;5.47;;;12.80;99.90;;;;;;5086822;27;20036;-79
2023/07/22 04:55:40;;;;;;;12.60;5.97;;;12.90;99.90;;;;;;5101216;27;20118;-80
2023/07/22 04:58:06;;;;;;;11.65;5.90;;;12.90;99.90;;;;;;5098745;27;20075;-79
2023/07/22 05:00:33;;;;;;;12.57;5.63;;;13.00;99.90;;;;;;5084325;27;20074;-79
2023/07/22 05:02:59;;;;;;;11.82;6.07;;;13.00;99.90;;;;;;5095328;27;20047;-79
2023/07/22 05:05:25;;;;;;;15.82;6.57;;;13.10;99.90;;;;;;5093049;27;20822;-79
2023/07/22 05:07:52;;;;;;;9.20;5.25;;;13.10;99.90;;;;;;5096400;27;20421;-79
2023/07/22 05:10:19;;;;;;;11.45;6.15;;;13.30;99.90;;;;;;5102373;27;20144;-79
2023/07/22 05:12:44;;;;;;;12.50;6.22;;;13.30;99.90;;;;;;5101125;27;20514;-79
2023/07/22 05:15:11;;;;;;;11.15;6.13;;;13.40;99.90;;;;;;5080634;27;20046;-79
2023/07/22 05:17:37;;;;;;;12.75;6.30;;;13.40;99.90;;;;;;5100896;27;20043;-79
2023/07/22 05:20:06;;;;;;;12.10;6.28;;;13.40;99.90;;;;;;5098353;27;20406;-80
2023/07/22 05:22:32;;;;;;;13.40;6.90;;;13.50;99.90;;;;;;5107761;27;20035;-79
2023/07/22 05:24:59;;;;;;;12.57;6.75;;;13.50;99.90;;;;;;5087125;27;20110;-79
2023/07/22 05:27:24;;;;;;;13.73;6.72;;;13.60;99.90;;;;;;5098920;27;20035;-79
2023/07/22 05:29:50;;;;;;;18.15;7.00;;;13.70;99.90;;;;;;5109104;27;20459;-79
2023/07/22 05:32:16;;;;;;;12.38;6.85;;;13.80;99.90;;;;;;5089142;27;20099;-79
2023/07/22 05:34:41;;;;;;;11.63;6.65;;;13.90;99.90;;;;;;5099954;27;20276;-79
2023/07/22 05:37:07;;;;;;;13.75;7.45;;;14.00;99.90;;;;;;5086750;27;20212;-79
2023/07/22 05:39:33;;;;;;;14.88;7.10;;;14.10;99.90;;;;;;5082853;27;20043;-79
2023/07/22 05:41:58;;;;;;;14.88;7.55;;;14.40;99.90;;;;;;5104152;27;20115;-79
2023/07/22 05:44:24;;;;;;;14.73;7.35;;;14.50;99.90;;;;;;5088398;27;20386;-79
2023/07/22 05:46:50;;;;;;;13.52;7.32;;;14.60;99.90;;;;;;5082946;27;20105;-79
2023/07/22 05:49:15;;;;;;;15.50;7.93;;;14.80;99.90;;;;;;5090638;27;20088;-79
2023/07/22 05:51:41;;;;;;;15.70;7.85;;;15.00;99.90;;;;;;5084154;27;20044;-79
2023/07/22 05:54:06;;;;;;;14.25;7.68;;;15.00;99.90;;;;;;5080722;27;20172;-79
2023/07/22 05:56:32;;;;;;;12.82;7.30;;;15.10;99.90;;;;;;5114802;27;20117;-79
2023/07/22 05:58:58;;;;;;;14.65;8.15;;;15.20;99.90;;;;;;5081019;27;20503;-79
2023/07/22 06:01:27;;;;;;;12.05;7.13;;;15.20;99.90;;;;;;5108355;27;20039;-79
2023/07/22 06:03:53;;;;;;;17.30;7.82;;;15.20;99.90;;;;;;5088615;27;20039;-79
2023/07/22 06:06:19;;;;;;;15.40;7.63;;;15.30;99.90;;;;;;5111980;27;20769;-79
2023/07/22 06:08:47;;;;;;;14.02;7.32;;;15.30;99.90;;;;;;5100045;27;20493;-79
2023/07/22 06:11:13;;;;;;;13.55;7.57;;;15.50;99.90;;;;;;5107313;27;20043;-79
2023/07/22 06:13:44;;;;;;;17.30;8.13;;;15.60;99.90;;;;;;5088104;27;20474;-80
2023/07/22 06:16:09;;;;;;;12.70;7.38;;;15.60;99.90;;;;;;5105190;27;20046;-79
2023/07/22 06:18:37;;;;;;;15.90;7.97;;;15.70;99.90;;;;;;5086177;27;20038;-79
2023/07/22 06:21:03;;;;;;;15.65;8.32;;;15.70;99.90;;;;;;5092247;27;20592;-79
2023/07/22 06:23:30;;;;;;;12.18;7.00;;;15.80;99.90;;;;;;5110402;27;20039;-79
2023/07/22 06:25:56;;;;;;;12.13;7.05;;;15.80;99.90;;;;;;5097367;27;20039;-79
2023/07/22 06:28:22;;;;;;;15.25;8.18;;;16.10;99.90;;;;;;5104664;27;20054;-79
2023/07/22 06:30:47;;;;;;;13.73;7.55;;;16.10;99.90;;;;;;5093703;27;20363;-79
2023/07/22 06:33:13;;;;;;;12.85;7.00;;;16.20;99.90;;;;;;5100361;28;20423;-79
2023/07/22 06:35:38;;;;;;;15.25;7.43;;;16.30;99.90;;;;;;5107835;27;20412;-79
2023/07/22 06:38:04;;;;;;;12.77;7.40;;;16.40;99.90;;;;;;5117990;27;20047;-79
2023/07/22 06:40:30;;;;;;;13.85;7.38;;;16.50;99.90;;;;;;5101814;27;20031;-79
2023/07/22 06:42:55;;;;;;;15.82;7.57;;;16.70;99.90;;;;;;5097699;27;20052;-79
2023/07/22 06:45:21;;;;;;;13.43;7.65;;;16.70;99.90;;;;;;5102695;27;20191;-79
2023/07/22 06:47:47;;;;;;;9.85;6.90;;;16.80;99.90;;;;;;5112112;27;20034;-79
2023/07/22 06:50:13;;;;;;;15.88;7.80;;;16.80;99.90;;;;;;5097619;27;20077;-79
2023/07/22 06:52:38;;;;;;;10.65;7.00;;;16.80;99.90;;;;;;5116144;27;20471;-79
2023/07/22 06:55:05;;;;;;;17.83;8.00;;;17.10;99.90;;;;;;5116673;27;20134;-80
2023/07/22 06:57:31;;;;;;;14.43;7.50;;;17.10;99.90;;;;;;5088499;27;20076;-79
2023/07/22 06:59:57;;;;;;;14.02;7.43;;;17.10;99.90;;;;;;5110425;27;20038;-79
2023/07/22 07:02:23;;;;;;;10.30;6.70;;;17.30;99.90;;;;;;5098658;27;20047;-79
2023/07/22 07:04:50;;;;;;;12.05;6.43;;;17.40;99.90;;;;;;5090744;27;20056;-80
2023/07/22 07:07:16;;;;;;;12.98;7.57;;;17.30;99.90;;;;;;5100328;27;20050;-79
2023/07/22 07:09:43;;;;;;;13.73;7.35;;;17.60;99.90;;;;;;5090465;27;20077;-79
2023/07/22 07:12:11;;;;;;;12.30;6.97;;;17.70;99.90;;;;;;5106122;27;20230;-79
2023/07/22 07:14:37;;;;;;;11.15;6.95;;;17.70;99.90;;;;;;5104374;27;20455;-79
2023/07/22 07:17:03;;;;;;;12.48;6.80;;;17.60;99.90;;;;;;5103865;27;20040;-79
2023/07/22 07:19:29;;;;;;;11.43;6.50;;;17.50;99.90;;;;;;5120853;27;20050;-79
2023/07/22 07:21:54;;;;;;;12.80;6.82;;;17.40;99.90;;;;;;5088024;27;20108;-79
2023/07/22 07:24:20;;;;;;;12.20;7.05;;;17.30;99.90;;;;;;5087354;27;20040;-79
2023/07/22 07:26:46;;;;;;;14.32;7.15;;;17.10;99.90;;;;;;5111828;27;20034;-79
2023/07/22 07:29:11;;;;;;;13.23;7.50;;;17.10;99.90;;;;;;5106974;27;20042;-79
2023/07/22 07:31:38;;;;;;;11.82;6.88;;;17.10;99.90;;;;;;5123432;27;20067;-79
2023/07/22 07:34:04;;;;;;;11.68;6.80;;;17.20;99.90;;;;;;5103664;27;20050;-79
2023/07/22 07:36:29;;;;;;;11.20;6.78;;;17.30;99.90;;;;;;5131037;27;20316;-79
2023/07/22 07:38:55;;;;;;;11.57;6.97;;;17.50;99.90;;;;;;5105742;27;20295;-79
2023/07/22 07:41:21;;;;;;;13.73;6.90;;;17.70;99.90;;;;;;5110104;27;20039;-79
2023/07/22 07:43:47;;;;;;;12.38;7.18;;;17.90;99.90;;;;;;5106193;27;20058;-79
2023/07/22 07:46:27;;;;;;;11.10;6.80;;;18.20;99.90;;;;;;5131591;27;20114;-79
2023/07/22 07:48:59;;;;;;;13.73;8.10;;;18.20;99.90;;;;;;5115028;27;20039;-79
2023/07/22 07:51:28;;;;;;;12.55;6.72;;;18.50;99.90;;;;;;5101725;27;20038;-79
2023/07/22 07:53:54;;;;;;;11.23;6.90;;;18.60;99.90;;;;;;5104034;27;20043;-80
2023/07/22 07:56:20;;;;;;;9.15;5.72;;;18.60;99.90;;;;;;5102766;27;20043;-79
2023/07/22 07:58:47;;;;;;;10.15;6.10;;;18.70;99.90;;;;;;5089297;27;20038;-79
2023/07/22 08:01:14;;;;;;;10.13;6.75;;;18.70;99.90;;;;;;5112865;27;20043;-79
2023/07/22 08:03:43;;;;;;;8.68;5.88;;;18.70;99.90;;;;;;5105573;27;20126;-79
2023/07/22 08:06:17;;;;;;;11.80;6.15;;;19.00;99.90;;;;;;5124653;27;20043;-79
2023/07/22 08:08:43;;;;;;;9.48;5.85;;;19.30;99.90;;;;;;5088314;27;20192;-79
2023/07/22 08:11:13;;;;;;;8.45;5.68;;;19.30;99.90;;;;;;5109536;27;20449;-79
2023/07/22 08:13:42;;;;;;;8.73;5.70;;;19.40;99.90;;;;;;5099193;27;20451;-79
2023/07/22 08:16:09;;;;;;;6.97;5.07;;;19.40;99.90;;;;;;5101881;27;20124;-79
2023/07/22 08:18:36;;;;;;;7.18;5.07;;;19.20;99.90;;;;;;5088219;27;20031;-79
2023/07/22 08:21:03;;;;;;;8.20;4.72;;;19.40;99.90;;;;;;5117589;27;20114;-79
2023/07/22 08:23:29;;;;;;;7.25;4.65;;;19.30;99.90;;;;;;5096535;27;20040;-79
2023/07/22 08:25:55;;;;;;;6.95;4.70;;;19.20;99.90;;;;;;5092880;27;20039;-79
2023/07/22 08:28:21;;;;;;;8.35;5.35;;;19.40;99.90;;;;;;5101979;27;20034;-79
2023/07/22 08:30:50;;;;;;;7.43;5.20;;;19.40;99.90;;;;;;5119355;27;20476;-79
2023/07/22 08:33:16;;;;;;;8.75;5.70;;;19.50;99.90;;;;;;5091760;27;20047;-79
2023/07/22 08:35:43;;;;;;;7.63;5.13;;;20.00;99.90;;;;;;5101930;27;20525;-79
2023/07/22 08:38:08;;;;;;;8.30;5.38;;;20.10;99.90;;;;;;5103019;27;20093;-79
2023/07/22 08:40:35;;;;;;;7.78;5.10;;;20.20;99.90;;;;;;5133586;27;20074;-80
2023/07/22 08:43:03;;;;;;;11.60;5.38;;;19.90;99.90;;;;;;5084725;27;20051;-79
2023/07/22 08:45:32;;;;;;;6.78;4.60;;;20.20;99.90;;;;;;5126768;27;20043;-79
2023/07/22 08:47:58;;;;;;;7.72;4.65;;;20.10;99.90;;;;;;5104722;27;20160;-79
2023/07/22 08:50:29;;;;;;;8.35;4.43;;;20.10;99.90;;;;;;5083207;27;20031;-80
2023/07/22 08:52:54;;;;;;;7.82;5.15;;;20.20;99.90;;;;;;5116811;27;20075;-79
2023/07/22 08:55:21;;;;;;;8.13;5.45;;;20.10;99.90;;;;;;5103932;27;20459;-79
2023/07/22 08:57:48;;;;;;;7.28;4.90;;;20.30;99.90;;;;;;5106149;27;20357;-79
2023/07/22 09:00:14;;;;;;;8.02;4.75;;;20.30;99.90;;;;;;5100371;27;20052;-80
2023/07/22 09:02:41;;;;;;;7.68;4.88;;;20.40;99.90;;;;;;5103759;27;20043;-81
2023/07/22 09:05:10;;;;;;;8.32;4.20;;;20.20;99.90;;;;;;5120443;27;20078;-80
2023/07/22 09:07:38;;;;;;;8.32;4.95;;;20.10;99.90;;;;;;5115067;27;20193;-80
2023/07/22 09:10:07;;;;;;;8.63;4.88;;;20.10;99.90;;;;;;5088918;27;20051;-80
2023/07/22 09:12:39;;;;;;;9.88;6.00;;;19.90;99.90;;;;;;5101776;27;20477;-81
2023/07/22 09:15:11;;;;;;;8.27;5.13;;;19.70;99.90;;;;;;5087871;27;20074;-81
2023/07/22 09:17:38;;;;;;;8.65;5.22;;;19.40;99.90;;;;;;5101651;27;20473;-82
2023/07/22 09:20:07;;;;;;;8.70;5.30;;;19.30;99.90;;;;;;5122220;27;20107;-82
2023/07/22 09:22:33;;;;;;;8.70;5.85;;;19.10;99.90;;;;;;5117267;27;20079;-82
2023/07/22 09:25:20;;;;;;;11.32;6.95;;;19.00;99.90;;;;;;5097512;27;20074;-82
2023/07/22 09:27:47;;;;;;;14.15;7.45;;;18.70;99.90;;;;;;5089405;27;20478;-82
2023/07/22 09:30:27;;;;;;;12.18;7.45;;;18.60;99.90;;;;;;5099280;27;20130;-82
2023/07/22 09:32:55;;;;;;;12.13;6.80;;;18.60;99.90;;;;;;5118269;27;20051;-82
2023/07/22 09:35:22;;;;;;;9.63;6.85;;;18.50;99.90;;;;;;5123911;27;20031;-82
2023/07/22 09:37:48;;;;;;;10.52;6.82;;;18.60;99.90;;;;;;5104818;27;20080;-81
2023/07/22 09:40:19;;;;;;;13.43;7.35;;;18.70;99.90;;;;;;5103125;27;20071;-81
2023/07/22 09:42:50;;;;;;;13.23;7.50;;;18.90;99.90;;;;;;5097290;27;20047;-82
2023/07/22 09:45:18;;;;;;;11.98;7.82;;;19.20;99.90;;;;;;5099736;27;20058;-81
2023/07/22 09:47:51;;;;;;;11.82;7.63;;;19.10;99.90;;;;;;5116304;27;20122;-82
2023/07/22 09:50:21;;;;;;;13.95;7.80;;;19.30;99.90;;;;;;5089341;27;20481;-81
2023/07/22 09:52:49;;;;;;;12.93;8.40;;;19.40;99.90;;;;;;5102152;27;20089;-81
2023/07/22 09:55:20;;;;;;;11.13;7.32;;;19.20;99.90;;;;;;5103897;27;20047;-81
2023/07/22 09:58:05;;;;;;;11.93;7.38;;;19.50;99.90;;;;;;5098291;27;20141;-81
2023/07/22 10:00:33;;;;;;;10.05;7.35;;;19.50;99.90;;;;;;5098499;27;20191;-81
2023/07/22 10:03:01;;;;;;;12.32;7.00;;;19.80;99.90;;;;;;5097115;27;20039;-81
2023/07/22 10:05:29;;;;;;;9.20;6.55;;;19.00;99.90;;;;;;5098001;27;20122;-81
2023/07/22 10:07:58;;;;;;;7.65;5.28;;;19.30;99.90;;;;;;5106572;27;20046;-81
2023/07/22 10:10:30;;;;;;;7.47;4.60;;;19.20;99.90;;;;;;5090849;27;20046;-81
2023/07/22 10:12:56;;;;;;;7.43;4.22;;;19.30;99.90;;;;;;5081284;27;20531;-81
2023/07/22 10:15:24;;;;;;;5.97;3.75;;;19.20;99.90;;;;;;5079969;27;20486;-81
2023/07/22 10:17:50;;;;;;;7.57;4.30;;;19.10;99.90;;;;;;5094588;27;20511;-81
2023/07/22 10:20:16;;;;;;;5.05;3.97;;;19.00;99.90;;;;;;5082296;27;20509;-81
2023/07/22 10:22:46;;;;;;;5.38;3.47;;;19.00;99.90;;;;;;5114750;27;20043;-81
2023/07/22 10:25:15;;;;;;;4.43;3.15;;;19.00;99.90;;;;;;5114634;27;20039;-81
2023/07/22 10:27:41;;;;;;;4.18;2.45;;;19.00;99.90;;;;;;5117498;27;20077;-81
2023/07/22 10:30:09;;;;;;;4.57;3.25;;;18.80;99.90;;;;;;5115694;27;20450;-82
2023/07/22 10:32:40;;;;;;;4.25;3.08;;;18.90;99.90;;;;;;5105657;27;20111;-82
2023/07/22 10:35:32;;;;;;;5.88;3.22;;;19.00;99.90;;;;;;5081896;27;20050;-82
2023/07/22 10:38:11;;;;;;;5.18;2.85;;;19.00;99.90;;;;;;5086854;27;20034;-82
2023/07/22 10:40:49;;;;;;;4.50;3.15;;;18.90;99.90;;;;;;5116100;27;20044;-82
2023/07/22 10:43:23;;;;;;;5.57;3.47;;;18.90;99.90;;;;;;5096565;27;20082;-83
2023/07/22 10:45:51;;;;;;;6.10;4.22;;;18.70;99.90;;;;;;5097099;27;20554;-83
2023/07/22 10:48:17;;;;;;;6.30;3.75;;;18.80;99.90;;;;;;5089715;27;20044;-82
2023/07/22 10:50:48;;;;;;;5.03;3.88;;;18.90;99.90;;;;;;5101798;27;20046;-83
2023/07/22 10:53:20;;;;;;;6.10;4.28;;;19.10;99.90;;;;;;5114312;27;20054;-83
2023/07/22 10:56:06;;;;;;;7.07;4.32;;;19.20;99.90;;;;;;5085933;27;20119;-83
2023/07/22 10:58:46;;;;;;;5.78;4.10;;;19.10;99.90;;;;;;5101808;27;20039;-82
2023/07/22 11:01:29;;;;;;;6.03;4.22;;;18.90;99.90;;;;;;5097648;27;20491;-83
2023/07/22 11:04:22;;;;;;;8.10;4.50;;;18.80;99.90;;;;;;5098292;27;20031;-83
2023/07/22 11:06:48;;;;;;;7.70;4.78;;;18.60;99.90;;;;;;5100762;27;20347;-83
2023/07/22 11:09:34;;;;;;;7.53;4.40;;;18.50;99.90;;;;;;5112592;27;20088;-83
2023/07/22 11:12:02;;;;;;;6.80;4.35;;;18.50;99.90;;;;;;5088529;27;20047;-85
2023/07/22 11:14:50;;;;;;;8.00;4.20;;;18.40;99.90;;;;;;5118837;27;20050;-83
2023/07/22 11:17:17;;;;;;;7.47;4.57;;;18.20;99.90;;;;;;5093076;27;20031;-83
2023/07/22 11:19:43;;;;;;;6.82;4.43;;;18.00;99.90;;;;;;5097921;27;20051;-83
2023/07/22 11:22:10;;;;;;;7.65;4.82;;;18.00;99.90;;;;;;5082192;27;20451;-83
2023/07/22 11:24:37;;;;;;;7.50;5.35;;;18.10;99.90;;;;;;5089506;27;20039;-83
2023/07/22 11:27:08;;;;;;;7.72;5.25;;;18.30;99.90;;;;;;5087194;27;20100;-83
2023/07/22 11:29:34;;;;;;;6.65;5.15;;;18.20;99.90;;;;;;5078716;27;20054;-83
2023/07/22 11:32:01;;;;;;;8.75;5.40;;;18.30;99.90;;;;;;5107748;27;20421;-83
2023/07/22 11:34:29;;;;;;;9.95;5.25;;;18.10;99.90;;;;;;5095288;27;20102;-84
2023/07/22 11:36:56;;;;;;;8.70;6.38;;;17.90;99.90;;;;;;5101871;27;20390;-83
2023/07/22 11:39:27;;;;;;;8.40;5.85;;;18.10;99.90;;;;;;5100706;27;20566;-83
2023/07/22 11:41:53;;;;;;;9.10;6.43;;;17.90;99.90;;;;;;5088109;27;20494;-83
2023/07/22 11:44:21;;;;;;;9.20;6.43;;;17.90;99.90;;;;;;5118451;27;20058;-84
2023/07/22 11:46:57;;;;;;;9.75;5.95;;;17.80;99.90;;;;;;5084808;27;20051;-83
2023/07/22 11:49:29;;;;;;;11.27;6.55;;;17.80;99.90;;;;;;5100357;27;20125;-83
2023/07/22 11:52:09;;;;;;;8.77;6.40;;;17.60;99.90;;;;;;5091672;27;20557;-83
2023/07/22 11:54:38;;;;;;;9.93;7.13;;;17.80;99.90;;;;;;5081306;27;20059;-83
2023/07/22 11:57:17;;;;;;;10.50;7.45;;;17.70;99.90;;;;;;5099065;27;20043;-83
2023/07/22 11:59:56;;;;;;;10.60;7.55;;;17.70;99.90;;;;;;5102532;27;20043;-83
2023/07/22 12:02:23;;;;;;;10.45;7.70;;;17.80;99.90;;;;;;5089844;27;20490;-82
2023/07/22 12:04:54;;;;;;;13.18;8.43;;;17.80;99.90;;;;;;5105188;27;20578;-83
2023/07/22 12:07:30;;;;;;;10.25;8.20;;;17.80;99.90;;;;;;5084817;27;20040;-82
2023/07/22 12:09:59;;;;;;;10.68;7.80;;;17.80;99.90;;;;;;5098104;27;20045;-83
2023/07/22 12:12:33;;;;;;;11.68;8.43;;;17.90;99.90;;;;;;5106130;27;20035;-84
2023/07/22 12:15:13;;;;;;;12.57;9.27;;;17.90;99.90;;;;;;5101423;27;20027;-83
2023/07/22 12:18:00;;;;;;;11.85;8.90;;;18.00;99.90;;;;;;5100053;27;20070;-84
2023/07/22 12:20:29;;;;;;;12.00;7.97;;;18.10;99.90;;;;;;5097730;27;20099;-83
2023/07/22 12:22:56;;;;;;;10.60;7.13;;;18.10;99.90;;;;;;5088102;27;20045;-84
2023/07/22 12:25:22;;;;;;;9.30;7.07;;;18.00;99.90;;;;;;5097193;27;20050;-83
2023/07/22 12:27:48;;;;;;;10.23;7.68;;;17.90;99.90;;;;;;5103331;27;20137;-84
2023/07/22 12:30:15;;;;;;;11.30;7.22;;;17.80;99.90;;;;;;5100511;27;20113;-84
2023/07/22 12:32:40;;;;;;;10.88;7.13;;;17.80;99.90;;;;;;5104462;27;20046;-84
2023/07/22 12:35:07;;;;;;;10.95;7.70;;;17.80;99.90;;;;;;5088641;27;20040;-84
2023/07/22 12:37:34;;;;;;;8.38;6.57;;;17.80;99.90;;;;;;5111124;27;20726;-84
2023/07/22 12:39:59;;;;;;;10.98;7.30;;;17.80;99.90;;;;;;5103584;27;20248;-85
2023/07/22 12:42:25;;;;;;;11.48;6.63;;;17.90;99.90;;;;;;5104321;27;20062;-85
2023/07/22 12:44:51;;;;;;;10.90;7.00;;;18.10;99.90;;;;;;5087069;27;20383;-84